Warm Springs Summit, Nevada Weather observations

Data are for observation ending at time listed.
 Day   Time    Ave.   Ave.  Ave.  Vector   Max.   Stn.    Total    Solar   Ave.  
  of    of     Air    Rel.  Wind   Wind    Wind   Baro.  Precip.   Rad.    Soil  
Year   Day     Temp.  Hum.  Speed  Dir.    Gust   Pres.                    Temp. 
2016   (PST)    F      %     mph   deg.    mph     mb.     in.     W/m2     F   
------------------------------------------------------------------------------
 125   12:20   61.0    23   31.6   147     42.5   771.6    0.00     874    54.8
 125   12:30   61.0    23   23.4   154     36.8   771.9    0.00     683    55.0
 125   12:40   61.3    22   29.2   149     37.7   771.6    0.00     675    55.2
 125   12:50   60.8    23   24.4   158     34.0   771.8    0.00     614    55.3
 125   13:00   61.2    23   23.7   156     40.3   771.7    0.00     584    55.5
 125   13:10   61.5    21   27.0   166     37.3   771.5    0.00     672    55.7
 125   13:20   61.5    20   28.1   157     37.4   771.3    0.00     774    55.8
 125   13:30   63.6    20   24.1   143     35.8   771.5    0.00     997    55.9
 125   13:40   62.5    20   25.4   145     36.9   771.3    0.00     822    56.0
 125   13:50   62.3    21   28.7   153     35.5   771.0    0.00     683    56.1
 125   14:00   62.6    21   20.8   154     36.6   771.3    0.00     571    56.2
 125   14:10   63.0    20   28.5   148     38.5   770.8    0.00     828    56.4
 125   14:20   63.7    19   19.6   177     32.1   771.1    0.00     836    56.5
 125   14:30   63.0    20   25.2   149     41.1   770.8    0.00     588    56.6
 125   14:40   61.8    21   25.2   163     36.8   770.7    0.00     500    56.7
 125   14:50   61.5    22   23.8   164     42.3   770.6    0.00     343    56.8
 125   15:00   61.6    22   22.4   170     34.7   770.6    0.00     588    56.9
 125   15:10   61.3    22   22.6   172     29.7   770.6    0.00     254    57.0
 125   15:20   60.6    22   22.5   173     30.5   770.6    0.00     297    57.1
 125   15:30   60.2    23   21.0   161     31.3   770.6    0.00     216    57.2
 125   15:40   60.5    23   19.7   175     28.4   770.6    0.00     331    57.3
 125   15:50   60.7    23   18.0   172     32.4   770.5    0.00     312    57.3
 125   16:00   60.9    23   23.0   158     35.1   770.3    0.00     352    57.4
 125   16:10   60.2    24   23.2   150     31.9   770.2    0.00     291    57.4
 125   16:20   59.9    24   24.1   158     33.4   770.1    0.00     242    57.5
 125   16:30   59.6    25   24.4   151     32.9   770.0    0.00     151    57.5
 125   16:40   59.3    25   25.5   156     31.9   770.0    0.00     134    57.5
 125   16:50   59.7    24   22.5   167     30.3   770.0    0.00     154    57.5
 125   17:00   59.7    24   25.1   152     36.6   770.0    0.00     155    57.5
 125   17:10   59.4    25   25.8   146     33.1   769.8    0.00     171    57.5
 125   17:20   59.2    26   26.4   149     33.2   769.8    0.00     145    57.5
 125   17:30   58.9    26   22.0   156     30.5   770.0    0.00      73    57.5
 125   17:40   59.1    26   19.3   152     24.2   770.1    0.00     112    57.5
 125   17:50   58.9    26   23.8   148     36.2   769.8    0.00      74    57.4
 125   18:00   58.4    27   24.0   148     29.1   769.8    0.00      22    57.4
 125   18:10   58.4    25   21.4   154     29.9   769.9    0.00      17    57.4
 125   18:20   58.5    25   17.8   170     25.3   770.1    0.00      17    57.3
 125   18:30   58.2    24   15.9   199     21.5   770.2    0.00       7    57.3
 125   18:40   57.7    23   18.9   206     25.1   770.2    0.00       2    57.2
 125   18:50   57.5    22   21.7   209     26.3   770.2    0.00       0    57.2
 125   19:00   57.3    22   21.6   209     26.8   770.3    0.00       0    57.1
 125   19:10   57.2    22   20.4   203     27.8   770.3    0.00       0    57.1
 125   19:20   57.0    22   23.4   200     29.0   770.3    0.00       0    57.0
 125   19:30   56.8    22   22.3   200     26.8   770.3    0.00       0    56.9
 125   19:40   56.7    22   22.2   202     27.0   770.3    0.00       0    56.9
 125   19:50   56.7    22   21.5   201     25.0   770.4    0.00       0    56.8
 125   20:00   56.8    21   20.5   199     24.7   770.5    0.00       0    56.7
 125   20:10   56.9    21   20.2   202     24.3   770.5    0.00       0    56.6
 125   20:20   56.8    20   18.8   200     22.2   770.6    0.00       0    56.6
 125   20:30   56.8    20   15.3   186     24.4   770.7    0.00       0    56.5
 125   20:40   56.4    21   14.8   180     18.7   770.8    0.00       0    56.4
 125   20:50   56.4    21   11.8   183     16.1   770.8    0.00       0    56.3
 125   21:00   55.3    24    9.7   158     12.0   770.9    0.00       0    56.3
 125   21:10   54.7    25    8.8   160     10.7   770.9    0.00       0    56.2
 125   21:20   54.9    24    9.3   158     12.0   770.9    0.00       0    56.1
 125   21:30   55.0    23    9.1   164     11.0   770.8    0.00       0    56.0
 125   21:40   55.3    22   10.8   165     13.8   770.8    0.00       0    56.0
 125   21:50   55.4    21   11.5   167     15.1   770.7    0.00       0    55.9
 125   22:00   55.7    21   13.8   176     16.5   770.6    0.00       0    55.8
 125   22:10   55.4    22   13.6   181     17.4   770.5    0.00       0    55.8
 125   22:20   55.5    22   14.6   179     18.0   770.4    0.00       0    55.7
 125   22:30   55.1    23   15.5   175     19.9   770.4    0.00       0    55.6
 125   22:40   55.1    23   15.8   175     19.0   770.4    0.00       0    55.5
 125   22:50   55.1    23   16.8   174     20.9   770.3    0.00       0    55.5
 125   23:00   55.2    23   16.8   176     21.0   770.2    0.00       0    55.4
 125   23:10   55.2    23   17.4   176     21.5   770.2    0.00       0    55.3
 125   23:20   55.0    23   15.8   175     19.6   770.3    0.00       0    55.2
 125   23:30   54.9    23   14.9   173     18.9   770.2    0.00       0    55.1
 125   23:40   54.6    23   11.5   169     14.9   770.2    0.00       0    55.1
 125   23:50   54.5    23    9.8   156     12.2   770.1    0.00       0    55.0
 126    0:00   54.3    23   11.6   155     15.3   770.0    0.00       0    54.9
 126    0:10   54.6    23   14.0   150     17.7   769.8    0.00       0    54.9
 126    0:20   54.3    24   13.4   149     15.8   769.7    0.00       0    54.8
 126    0:30   53.7    24   11.2   143     13.1   769.7    0.00       0    54.7
 126    0:40   53.2    25   10.6   143     11.9   769.5    0.00       0    54.6
 126    0:50   53.1    25   11.9   146     15.7   769.4    0.00       0    54.6
 126    1:00   53.5    24   13.3   152     16.4   769.2    0.00       0    54.5
 126    1:10   53.1    25   10.9   149     15.3   769.2    0.00       0    54.4
 126    1:20   52.9    25   11.2   141     14.1   769.0    0.00       0    54.4
 126    1:30   53.0    25   13.3   148     16.9   768.9    0.00       0    54.3
 126    1:40   53.0    24   13.3   155     18.6   768.8    0.00       0    54.2
 126    1:50   52.7    25   11.5   151     15.5   768.8    0.00       0    54.1
 126    2:00   52.7    25   14.0   156     18.2   768.7    0.00       0    54.0
 126    2:10   52.9    24   14.1   157     17.4   768.6    0.00       0    54.0
 126    2:20   52.6    25   12.8   156     16.2   768.6    0.00       0    53.9
 126    2:30   52.5    25   11.7   149     14.7   768.7    0.00       0    53.8
 126    2:40   52.0    26    9.3   147     11.7   768.7    0.00       0    53.8
 126    2:50   51.9    26   11.3   162     16.0   768.6    0.00       0    53.7
 126    3:00   52.3    26   14.3   170     18.2   768.5    0.00       0    53.6
 126    3:10   52.1    26   10.2   155     13.6   768.6    0.00       0    53.5
 126    3:20   51.7    26    9.6   152     13.0   768.6    0.00       0    53.5
 126    3:30   51.8    26   11.0   158     15.5   768.5    0.00       0    53.4
 126    3:40   52.0    26   12.5   161     16.6   768.4    0.00       0    53.3
 126    3:50   52.1    27   11.5   169     19.0   768.3    0.00       0    53.3
 126    4:00   51.3    27    7.8   134     11.2   768.4    0.00       0    53.2
 126    4:10   51.4    27    9.0   160     15.3   768.4    0.00       0    53.1
 126    4:20   51.0    28    7.5   142     12.2   768.5    0.00       0    53.0
 126    4:30   50.9    27    7.9   125     11.4   768.5    0.00       1    53.0
 126    4:40   50.6    28    8.0   124      9.8   768.5    0.00       2    52.9
 126    4:50   50.4    28    7.3   115      9.0   768.4    0.00       8    52.8
 126    5:00   50.5    28    8.2   106     11.7   768.3    0.00      22    52.8
 126    5:10   50.8    28    8.9   101     11.4   768.3    0.00      40    52.7
 126    5:20   51.1    28    6.7    90     10.1   768.3    0.00      62    52.6
 126    5:30   51.4    28    7.4    94     10.5   768.3    0.00      98    52.5
 126    5:40   51.6    29    7.8    94     13.1   768.3    0.00     144    52.5
 126    5:50   51.9    28    9.5   114     14.0   768.3    0.00     156    52.4
 126    6:00   51.8    29   10.2   116     15.2   768.2    0.00     186    52.3
 126    6:10   51.8    29   10.3   115     14.1   768.2    0.00     216    52.3
 126    6:20   52.3    30   14.0   122     18.0   768.2    0.00     305    52.2
 126    6:30   52.1    30   11.3   125     18.9   768.2    0.00     271    52.1
 126    6:40   52.2    30    9.8   118     13.6   768.3    0.00     312    52.1
 126    6:50   52.4    30   10.4   125     14.5   768.3    0.00     339    52.1
 126    7:00   52.2    31   11.8   128     18.6   768.3    0.00     358    52.0
 126    7:10   52.5    30   12.3   132     18.8   768.2    0.00     393    52.0
 126    7:20   52.7    30   14.0   139     20.4   768.2    0.00     423    52.0
 126    7:30   53.2    30   16.2   141     33.4   768.1    0.00     471    52.0
 126    7:40   52.9    31   22.8   138     33.8   767.9    0.00     540    52.0
 126    7:50   53.3    31   22.9   144     30.8   767.8    0.00     556    52.0
 126    8:00   53.6    32   23.1   149     33.3   767.8    0.00     528    52.0
 126    8:10   53.4    32   27.5   145     37.3   767.5    0.00     555    52.1
 126    8:20   53.8    32   28.8   143     40.5   767.4    0.00     564    52.1
 126    8:30   54.1    31   29.0   137     40.2   767.4    0.00     514    52.1
 126    8:40   54.3    31   24.8   133     38.3   767.5    0.00     605    52.2
 126    8:50   55.5    26   37.3   137     47.6   766.8    0.00     720    52.3
 126    9:00   55.7    26   39.8   145     49.0   766.7    0.00     764    52.4
 126    9:10   56.4    27   36.6   145     46.5   767.0    0.00     873    52.4
 126    9:20   56.0    26   37.4   142     45.5   766.9    0.00     737    52.5
 126    9:30   56.0    26   31.9   138     39.2   767.3    0.00     714    52.6
 126    9:40   57.3    27   30.6   139     38.7   767.3    0.00    1017    52.7
 126    9:50   57.0    27   31.2   144     38.9   767.3    0.00     647    52.8
 126   10:00   57.1    27   32.8   146     47.8   767.2    0.00     860    52.9
 126   10:10   56.4    28   32.3   139     42.2   767.2    0.00     622    53.0
 126   10:20   56.6    28   32.9   141     42.0   767.2    0.00     692    53.2
 126   10:30   56.7    26   31.6   147     43.5   767.2    0.00     631    53.3
 126   10:40   56.6    26   30.0   153     43.8   767.2    0.00     705    53.4
 126   10:50   56.9    27   29.6   142     36.9   767.2    0.00     609    53.5
 126   11:00   56.8    26   35.9   142     46.8   766.8    0.00     714    53.7
 126   11:10   56.6    28   30.7   146     42.7   767.0    0.00     647    53.8
 126   11:20   57.1    28   30.2   149     42.6   766.9    0.00     706    53.9
 126   11:30   57.1    29   30.5   148     43.5   766.8    0.00     665    54.0
 126   11:40   56.7    30   34.9   139     44.2   766.4    0.00     599    54.2
 126   11:50   56.9    29   34.6   137     50.3   766.4    0.00     758    54.3
 126   12:00   57.5    27   37.1   143     51.4   766.2    0.00    1000    54.4
 126   12:10   58.3    25   36.5   147     51.2   766.3    0.00     965    54.5

Return to Warm Springs Summit, Nevada graphs page.


Western Regional Climate Center,wrcc@dri.edu